createdAt,value
2018-07-04T15:53:07.119Z,25.00
2018-07-04T15:55:46.764Z,26.00
2018-07-04T15:58:26.465Z,27.10
2018-07-04T16:01:06.807Z,27.70
2018-07-04T16:03:46.445Z,28.20
2018-07-04T16:06:26.159Z,28.50
2018-07-04T16:09:06.178Z,28.90
2018-07-04T16:11:46.084Z,29.40
2018-07-04T16:14:25.728Z,29.80
2018-07-04T16:17:05.724Z,30.00
2018-07-04T16:19:45.726Z,29.90
2018-07-04T16:22:25.237Z,30.00
2018-07-04T16:25:04.712Z,30.50
2018-07-04T16:27:44.211Z,30.90
2018-07-04T16:30:23.873Z,30.90
2018-07-04T16:33:03.593Z,30.90
2018-07-04T16:35:43.303Z,31.00
2018-07-04T16:38:23.640Z,31.20
2018-07-04T16:41:03.485Z,31.30
2018-07-04T16:43:43.245Z,31.60
2018-07-04T16:46:22.841Z,31.60
2018-07-04T16:49:02.728Z,31.80
2018-07-04T16:51:42.381Z,32.00
2018-07-04T16:54:21.924Z,32.10
2018-07-04T16:57:01.691Z,32.00
2018-07-04T16:59:41.362Z,31.90
2018-07-04T17:02:20.998Z,31.80
2018-07-04T17:05:00.813Z,31.50
2018-07-04T17:07:40.440Z,31.30
2018-07-04T17:10:20.231Z,31.10
2018-07-04T17:12:59.952Z,31.10
2018-07-04T17:15:39.588Z,31.20
2018-07-04T17:18:20.175Z,31.10
2018-07-04T17:20:59.870Z,30.80
2018-07-04T17:26:13.214Z,30.20
2018-07-04T17:28:54.010Z,30.00
2018-07-04T17:31:33.552Z,29.60
2018-07-04T17:34:13.300Z,29.40
2018-07-04T17:36:53.049Z,29.10
2018-07-04T17:39:32.702Z,28.80
2018-07-04T17:42:12.368Z,28.60
2018-07-04T17:44:52.125Z,28.40
2018-07-04T17:47:31.837Z,28.20
2018-07-04T17:50:11.496Z,28.10
2018-07-04T17:52:51.454Z,28.00
2018-07-04T17:55:31.166Z,27.90
2018-07-04T17:58:10.985Z,27.80
2018-07-04T18:00:50.664Z,27.70
2018-07-04T18:03:30.419Z,27.70
2018-07-04T18:06:10.114Z,27.50
2018-07-04T18:08:49.635Z,27.40
2018-07-04T18:11:29.243Z,27.30
2018-07-04T18:14:08.867Z,27.20
2018-07-04T18:16:48.509Z,27.10
2018-07-04T18:19:28.253Z,27.00
2018-07-04T18:22:07.947Z,27.00
2018-07-04T18:24:47.501Z,26.90
2018-07-04T18:27:27.152Z,26.90
2018-07-04T18:30:06.839Z,26.80
2018-07-04T18:32:46.411Z,26.90
2018-07-04T18:35:26.066Z,27.30
2018-07-04T18:38:05.656Z,27.70
2018-07-04T18:40:45.439Z,28.10
2018-07-04T18:43:25.181Z,28.30
2018-07-04T18:46:05.096Z,28.40
2018-07-04T18:48:44.747Z,28.40
2018-07-04T18:51:24.436Z,28.10
2018-07-04T18:54:04.161Z,27.90
2018-07-04T18:56:43.792Z,27.80
2018-07-04T18:59:23.627Z,27.70
2018-07-04T19:02:03.148Z,27.50
2018-07-04T19:04:42.868Z,27.40
2018-07-04T19:07:22.488Z,27.10
2018-07-04T19:10:02.254Z,27.00
2018-07-04T19:12:41.937Z,26.80
2018-07-04T19:15:21.522Z,26.70
2018-07-04T19:18:01.228Z,26.60
2018-07-04T19:20:41.062Z,26.50
2018-07-04T19:23:20.597Z,26.40
2018-07-04T19:26:00.464Z,26.30
2018-07-04T19:28:40.282Z,26.20
2018-07-04T19:31:19.957Z,26.10
2018-07-04T19:33:59.776Z,26.00
2018-07-04T19:36:39.252Z,26.00
2018-07-04T19:39:18.907Z,26.00
2018-07-04T19:41:58.560Z,25.80
2018-07-04T19:44:38.217Z,25.80
2018-07-04T19:47:17.859Z,25.70
2018-07-04T19:49:57.538Z,25.60
2018-07-04T19:52:37.416Z,25.50
2018-07-04T19:55:17.384Z,25.40
2018-07-04T19:57:57.325Z,25.30
2018-07-04T20:00:36.880Z,25.20
2018-07-04T20:03:16.497Z,25.10
2018-07-04T20:05:56.153Z,25.10
2018-07-04T20:08:35.825Z,25.00
2018-07-04T20:11:15.459Z,24.90
2018-07-04T20:13:55.275Z,24.90
2018-07-04T20:16:35.080Z,24.80
2018-07-04T20:19:14.910Z,24.80
2018-07-04T20:21:54.764Z,24.70
2018-07-04T20:24:34.737Z,24.60
2018-07-04T20:27:14.416Z,24.60
2018-07-04T20:29:54.330Z,24.50
2018-07-04T20:32:34.395Z,24.50
2018-07-04T20:35:14.208Z,24.40
2018-07-04T20:37:54.083Z,24.40
2018-07-04T20:40:33.695Z,24.50
2018-07-04T20:43:13.931Z,24.30
2018-07-04T20:45:53.939Z,24.20
2018-07-04T20:48:33.755Z,24.20
2018-07-04T20:51:13.553Z,24.10
2018-07-04T20:53:53.534Z,24.10
2018-07-04T20:56:33.249Z,24.00
2018-07-04T20:59:12.986Z,24.00
2018-07-04T21:01:53.960Z,23.90
2018-07-04T21:04:34.032Z,23.80
2018-07-04T21:07:13.832Z,23.80
2018-07-04T21:09:53.668Z,23.70
2018-07-04T21:12:33.453Z,23.70
2018-07-04T21:15:13.276Z,23.70
2018-07-04T21:17:53.790Z,23.60
2018-07-04T21:23:07.254Z,23.60
2018-07-04T21:25:47.049Z,23.60
2018-07-04T21:28:26.596Z,23.50
2018-07-04T21:31:06.372Z,23.40
2018-07-04T21:33:46.192Z,23.40
2018-07-04T21:36:26.132Z,23.30
2018-07-04T21:39:06.175Z,23.30
2018-07-04T21:41:45.856Z,23.20
2018-07-04T21:44:25.667Z,23.20
2018-07-04T21:47:05.363Z,23.20
2018-07-04T21:49:45.245Z,23.10
2018-07-04T21:52:24.920Z,23.10
2018-07-04T21:55:05.368Z,23.00
2018-07-04T21:57:45.170Z,23.00
2018-07-04T22:00:25.055Z,22.90
2018-07-04T22:03:04.794Z,22.90
2018-07-04T22:05:44.480Z,22.90
2018-07-04T22:08:24.083Z,22.80
2018-07-04T22:11:03.857Z,22.80
2018-07-04T22:13:43.563Z,22.70
2018-07-04T22:16:23.344Z,22.70
2018-07-04T22:19:03.125Z,22.60
2018-07-04T22:21:42.836Z,22.50
2018-07-04T22:24:22.643Z,22.50
2018-07-04T22:27:02.408Z,22.40
2018-07-04T22:29:42.230Z,22.40
2018-07-04T22:32:21.968Z,22.40
2018-07-04T22:35:01.746Z,22.30
2018-07-04T22:37:41.445Z,22.20
2018-07-04T22:40:21.206Z,22.20
2018-07-04T22:43:00.922Z,22.20
2018-07-04T22:45:40.629Z,22.10
2018-07-04T22:48:20.347Z,22.10
2018-07-04T22:51:00.384Z,22.00
2018-07-04T22:53:40.239Z,21.90
2018-07-04T22:56:19.757Z,21.90
2018-07-04T22:58:59.455Z,21.80
2018-07-04T23:01:39.363Z,21.80
2018-07-04T23:04:19.023Z,21.70
2018-07-04T23:06:58.850Z,21.70
2018-07-04T23:09:38.415Z,21.60
2018-07-04T23:12:18.167Z,21.50
2018-07-04T23:14:57.872Z,21.40
2018-07-04T23:17:37.503Z,21.40
2018-07-04T23:20:17.473Z,21.30
2018-07-04T23:22:57.170Z,21.30
2018-07-04T23:25:36.946Z,21.20
2018-07-04T23:28:16.770Z,21.10
2018-07-04T23:30:56.575Z,21.10
2018-07-04T23:33:36.373Z,21.00
2018-07-04T23:38:49.541Z,20.90
2018-07-04T23:41:29.178Z,20.90
2018-07-04T23:44:08.957Z,20.90
2018-07-04T23:46:48.458Z,20.80
2018-07-04T23:49:28.161Z,20.70
2018-07-04T23:52:07.783Z,20.70
2018-07-04T23:54:47.420Z,20.60
2018-07-04T23:57:27.165Z,20.60
